Time;durP1;ratioP1;P1;durP2;ratioP2;P2;SDS_P1;SDS_P2;PMS_P1;PMS_P2;Temp;Humidity;BMP_temperature;BMP_pressure;BME280_temperature;BME280_humidity;BME280_pressure;Samples;Min_cycle;Max_cycle;Signal;HPM_P1;HPM_P2
2020/12/06 00:01:07;;;;;;;25.87;23.47;;;4.60;99.90;;;;;;5127842;27;21276;-89
2020/12/06 00:03:36;;;;;;;23.93;21.73;;;4.70;99.90;;;;;;5131193;27;20611;-90
2020/12/06 00:06:03;;;;;;;23.40;21.20;;;4.70;99.90;;;;;;5127968;27;20631;-90
2020/12/06 00:08:29;;;;;;;24.83;22.53;;;4.60;99.90;;;;;;5124408;27;20665;-89
2020/12/06 00:10:57;;;;;;;26.53;24.13;;;4.60;99.90;;;;;;5122536;27;20642;-90
2020/12/06 00:13:24;;;;;;;25.10;22.70;;;4.60;99.90;;;;;;5125443;27;20595;-89
2020/12/06 00:15:50;;;;;;;25.60;23.27;;;4.60;99.90;;;;;;5131635;27;20619;-90
2020/12/06 00:18:17;;;;;;;23.60;21.30;;;4.60;99.90;;;;;;5126854;27;20630;-87
2020/12/06 00:20:46;;;;;;;26.57;24.03;;;4.50;99.90;;;;;;5140936;27;20643;-90
2020/12/06 00:23:20;;;;;;;26.30;23.77;;;4.50;99.90;;;;;;5150729;27;20625;-89
2020/12/06 00:25:48;;;;;;;24.80;22.50;;;4.50;99.90;;;;;;5135690;27;21189;-89
2020/12/06 00:28:14;;;;;;;25.20;22.80;;;4.50;99.90;;;;;;5126968;27;20659;-90
2020/12/06 00:30:41;;;;;;;24.70;22.50;;;4.60;99.90;;;;;;5125309;27;20631;-89
2020/12/06 00:33:07;;;;;;;25.53;23.23;;;4.70;99.90;;;;;;5127877;27;20634;-89
2020/12/06 00:35:33;;;;;;;23.40;21.30;;;4.90;99.90;;;;;;5137385;27;20650;-90
2020/12/06 00:38:00;;;;;;;24.90;22.40;;;4.80;99.90;;;;;;5133238;27;20619;-88
2020/12/06 00:40:29;;;;;;;25.40;23.07;;;4.70;99.90;;;;;;5132304;27;20647;-90
2020/12/06 00:42:55;;;;;;;24.63;22.43;;;4.70;99.90;;;;;;5135500;27;20629;-89
2020/12/06 00:45:21;;;;;;;28.63;25.93;;;4.60;99.90;;;;;;5127776;27;20630;-90
2020/12/06 00:47:48;;;;;;;26.57;24.07;;;4.60;99.90;;;;;;5130739;27;20654;-89
2020/12/06 00:50:14;;;;;;;26.50;23.90;;;4.60;99.90;;;;;;5129997;27;20654;-90
2020/12/06 00:52:43;;;;;;;27.90;25.57;;;4.50;99.90;;;;;;5130286;27;20699;-90
2020/12/06 00:55:10;;;;;;;26.47;23.60;;;4.50;99.90;;;;;;5129496;27;20722;-90
2020/12/06 00:57:37;;;;;;;25.03;22.63;;;4.50;99.90;;;;;;5132463;27;20633;-88
2020/12/06 01:00:05;;;;;;;26.60;23.93;;;4.40;99.90;;;;;;5128680;27;20650;-88
2020/12/06 01:02:31;;;;;;;25.40;22.93;;;4.50;99.90;;;;;;5112736;27;20671;-90
2020/12/06 01:04:58;;;;;;;28.63;26.03;;;4.50;99.90;;;;;;5115880;27;20618;-91
2020/12/06 01:07:24;;;;;;;25.53;23.17;;;4.50;99.90;;;;;;5131076;27;20710;-88
2020/12/06 01:09:50;;;;;;;25.57;23.27;;;4.50;99.90;;;;;;5131070;27;20645;-90
2020/12/06 01:12:18;;;;;;;22.90;20.80;;;4.50;99.90;;;;;;5126284;27;21052;-93
2020/12/06 01:14:44;;;;;;;24.10;22.00;;;4.50;99.90;;;;;;5118906;27;20636;-90
2020/12/06 01:17:12;;;;;;;25.27;23.00;;;4.60;99.90;;;;;;5130471;27;20626;-91
2020/12/06 01:19:39;;;;;;;22.87;20.67;;;4.60;99.90;;;;;;5135772;27;20647;-91
2020/12/06 01:22:06;;;;;;;22.43;20.40;;;4.60;99.90;;;;;;5128111;27;20630;-91
2020/12/06 01:24:32;;;;;;;20.10;18.10;;;4.60;99.90;;;;;;5125020;27;20633;-91
2020/12/06 01:26:58;;;;;;;19.80;18.10;;;4.60;99.90;;;;;;5127087;27;20619;-91
2020/12/06 01:29:26;;;;;;;23.70;21.60;;;4.50;99.90;;;;;;5121274;27;20661;-88
2020/12/06 01:31:52;;;;;;;22.13;20.13;;;4.50;99.90;;;;;;5118857;27;20654;-89
2020/12/06 01:34:18;;;;;;;22.03;19.83;;;4.50;99.90;;;;;;5127098;27;20991;-90
2020/12/06 01:36:45;;;;;;;21.30;19.30;;;4.40;99.90;;;;;;5129227;27;20645;-91
2020/12/06 01:39:11;;;;;;;22.37;20.27;;;4.50;99.90;;;;;;5106426;27;20628;-90
2020/12/06 01:41:39;;;;;;;21.80;19.80;;;4.50;99.90;;;;;;5128788;27;20623;-90
2020/12/06 01:44:05;;;;;;;22.63;20.60;;;4.40;99.90;;;;;;5128942;27;20630;-89
2020/12/06 01:46:36;;;;;;;21.43;19.33;;;4.30;99.90;;;;;;5125297;27;21059;-89
2020/12/06 01:49:03;;;;;;;25.07;22.77;;;4.40;99.90;;;;;;5124308;27;20985;-90
2020/12/06 01:51:34;;;;;;;21.40;19.27;;;4.30;99.90;;;;;;5129948;27;21208;-90
2020/12/06 01:54:00;;;;;;;20.73;18.83;;;4.40;99.90;;;;;;5126859;27;20629;-90
2020/12/06 01:56:28;;;;;;;21.87;19.87;;;4.40;99.90;;;;;;5132287;27;20657;-90
2020/12/06 01:58:54;;;;;;;22.23;20.07;;;4.40;99.90;;;;;;5131192;27;20619;-90
2020/12/06 02:01:21;;;;;;;22.23;20.23;;;4.30;99.90;;;;;;5127595;27;20671;-90
2020/12/06 02:03:53;;;;;;;22.23;20.13;;;4.30;99.90;;;;;;5132298;27;20633;-90
2020/12/06 02:06:19;;;;;;;22.13;20.13;;;4.30;99.90;;;;;;5127413;27;20645;-90
2020/12/06 02:08:47;;;;;;;25.33;22.93;;;4.30;99.90;;;;;;5129222;27;20661;-90
2020/12/06 02:11:28;;;;;;;22.47;20.27;;;4.20;99.90;;;;;;5125185;27;20640;-91
2020/12/06 02:13:55;;;;;;;23.70;21.53;;;4.20;99.90;;;;;;5126136;27;20638;-90
2020/12/06 02:16:21;;;;;;;24.17;21.97;;;4.30;99.90;;;;;;5128977;27;21168;-89
2020/12/06 02:18:49;;;;;;;24.87;22.47;;;4.20;99.90;;;;;;5130736;27;20645;-89
2020/12/06 02:21:18;;;;;;;23.57;21.37;;;4.20;99.90;;;;;;5126059;27;20658;-90
2020/12/06 02:23:45;;;;;;;23.20;21.00;;;4.20;99.90;;;;;;5125605;27;20643;-91
2020/12/06 02:26:11;;;;;;;22.93;20.73;;;4.20;99.90;;;;;;5128270;27;20627;-91
2020/12/06 02:28:41;;;;;;;24.70;22.40;;;4.20;99.90;;;;;;5127397;27;20654;-90
2020/12/06 02:31:10;;;;;;;24.33;21.93;;;4.20;99.90;;;;;;5126960;27;20646;-89
2020/12/06 02:33:37;;;;;;;25.83;23.40;;;4.30;99.90;;;;;;5127486;27;20643;-91
2020/12/06 02:36:03;;;;;;;26.37;23.87;;;4.20;99.90;;;;;;5127012;27;20698;-91
2020/12/06 02:38:30;;;;;;;24.63;22.33;;;4.20;99.90;;;;;;5109331;27;20622;-90
2020/12/06 02:40:57;;;;;;;26.20;23.67;;;4.20;99.90;;;;;;5125613;27;20677;-88
2020/12/06 02:43:23;;;;;;;25.83;23.40;;;4.20;99.90;;;;;;5129745;27;20615;-89
2020/12/06 02:45:50;;;;;;;26.67;23.83;;;4.20;99.90;;;;;;5127994;27;20661;-90
2020/12/06 02:48:16;;;;;;;25.43;22.73;;;4.10;99.90;;;;;;5125164;27;21095;-90
2020/12/06 02:50:43;;;;;;;25.53;23.13;;;4.20;99.90;;;;;;5127880;27;20635;-90
2020/12/06 02:53:09;;;;;;;25.77;23.37;;;4.10;99.90;;;;;;5125841;27;20707;-92
2020/12/06 02:55:36;;;;;;;26.07;23.63;;;4.10;99.90;;;;;;5124106;27;20958;-91
2020/12/06 02:58:05;;;;;;;26.47;24.03;;;4.10;99.90;;;;;;5103300;27;20651;-90
2020/12/06 03:00:32;;;;;;;25.60;23.10;;;4.10;99.90;;;;;;5128513;27;20734;-92
2020/12/06 03:02:58;;;;;;;28.20;25.40;;;4.20;99.90;;;;;;5125664;27;20638;-89
2020/12/06 03:05:25;;;;;;;29.33;26.53;;;4.20;99.90;;;;;;5127018;27;21130;-89
2020/12/06 03:07:51;;;;;;;28.77;26.00;;;4.10;99.90;;;;;;5123603;27;20658;-87
2020/12/06 03:10:17;;;;;;;29.77;26.87;;;4.20;99.90;;;;;;5129460;27;21011;-89
2020/12/06 03:12:45;;;;;;;31.73;28.40;;;4.30;99.90;;;;;;5131201;27;20634;-89
2020/12/06 03:15:11;;;;;;;30.67;27.50;;;4.20;99.90;;;;;;5133066;27;20606;-89
2020/12/06 03:17:37;;;;;;;31.87;28.47;;;4.20;99.90;;;;;;5125432;27;21178;-90
2020/12/06 03:20:04;;;;;;;33.70;30.40;;;4.20;99.90;;;;;;5128965;27;21021;-90
2020/12/06 03:22:32;;;;;;;31.43;28.17;;;4.00;99.90;;;;;;5129903;27;20619;-90
2020/12/06 03:25:00;;;;;;;32.87;29.47;;;4.00;99.90;;;;;;5129438;27;20626;-89
2020/12/06 03:27:27;;;;;;;32.73;29.50;;;4.10;99.90;;;;;;5122371;27;21164;-90
2020/12/06 03:29:55;;;;;;;31.83;28.70;;;4.10;99.90;;;;;;5124668;27;20665;-90
2020/12/06 03:32:21;;;;;;;34.83;31.43;;;4.00;99.90;;;;;;5121091;27;20619;-91
2020/12/06 03:34:48;;;;;;;33.67;30.30;;;3.90;99.90;;;;;;5126423;27;20638;-90
2020/12/06 03:37:14;;;;;;;34.27;30.90;;;4.00;99.90;;;;;;5109658;27;20635;-90
2020/12/06 03:39:40;;;;;;;34.93;31.37;;;3.90;99.90;;;;;;5124509;27;20647;-91
2020/12/06 03:42:08;;;;;;;32.97;29.73;;;4.00;99.90;;;;;;5144932;27;20686;-90
2020/12/06 03:44:35;;;;;;;32.37;29.27;;;3.90;99.90;;;;;;5151149;27;20636;-90
2020/12/06 03:47:02;;;;;;;33.23;29.83;;;4.00;99.90;;;;;;5144337;27;20720;-90
2020/12/06 03:49:28;;;;;;;32.70;29.40;;;3.90;99.90;;;;;;5126734;27;20679;-90
2020/12/06 03:51:55;;;;;;;35.47;31.83;;;4.00;99.90;;;;;;5128577;27;21199;-91
2020/12/06 03:54:21;;;;;;;32.57;29.40;;;3.90;99.90;;;;;;5127009;27;20619;-91
2020/12/06 03:56:47;;;;;;;31.57;28.43;;;4.00;99.90;;;;;;5113484;27;20641;-91
2020/12/06 03:59:14;;;;;;;32.87;29.37;;;4.00;99.90;;;;;;5123977;27;21153;-90
2020/12/06 04:01:40;;;;;;;33.37;29.97;;;3.80;99.90;;;;;;5104312;27;20656;-90
2020/12/06 04:04:08;;;;;;;34.40;30.67;;;3.80;99.90;;;;;;5129943;27;20634;-91
2020/12/06 04:06:34;;;;;;;41.90;35.00;;;3.90;99.90;;;;;;5126046;27;20630;-90
2020/12/06 04:09:00;;;;;;;39.17;34.10;;;3.80;99.90;;;;;;5127162;27;20776;-90
2020/12/06 04:11:26;;;;;;;36.63;31.50;;;4.00;99.90;;;;;;5126596;27;20961;-90
2020/12/06 04:13:54;;;;;;;37.17;33.17;;;3.80;99.90;;;;;;5130561;27;20631;-90
2020/12/06 04:16:20;;;;;;;41.80;34.03;;;3.80;99.90;;;;;;5131897;27;20611;-91
2020/12/06 04:18:46;;;;;;;37.40;32.63;;;3.80;99.90;;;;;;5134486;27;20610;-90
2020/12/06 04:21:15;;;;;;;38.90;33.93;;;3.80;99.90;;;;;;5133658;27;20729;-90
2020/12/06 04:23:41;;;;;;;38.27;31.40;;;3.80;99.90;;;;;;5129848;27;20593;-89
2020/12/06 04:26:09;;;;;;;35.80;31.47;;;3.80;99.90;;;;;;5131153;27;21003;-89
2020/12/06 04:28:35;;;;;;;40.47;33.93;;;3.80;99.90;;;;;;5133090;27;20671;-92
2020/12/06 04:31:09;;;;;;;35.10;29.30;;;3.80;99.90;;;;;;5133120;27;20971;-89
2020/12/06 04:33:36;;;;;;;33.00;29.13;;;3.80;99.90;;;;;;5131173;27;20718;-90
2020/12/06 04:36:02;;;;;;;36.07;31.00;;;3.90;99.90;;;;;;5132475;27;20626;-91
2020/12/06 04:38:29;;;;;;;37.13;31.03;;;3.90;99.90;;;;;;5135852;27;21005;-90
2020/12/06 04:40:56;;;;;;;32.47;27.57;;;3.80;99.90;;;;;;5127387;27;20646;-89
2020/12/06 04:43:22;;;;;;;34.73;30.60;;;3.70;99.90;;;;;;5135866;27;20652;-90
2020/12/06 04:45:48;;;;;;;37.27;32.80;;;3.80;99.90;;;;;;5132116;27;20619;-88
2020/12/06 04:48:24;;;;;;;30.90;27.20;;;3.70;99.90;;;;;;5125164;27;21530;-87
2020/12/06 04:50:55;;;;;;;38.10;30.03;;;3.90;99.90;;;;;;5131611;27;20656;-87
2020/12/06 04:53:26;;;;;;;35.47;31.43;;;3.90;99.90;;;;;;5127651;27;20603;-88
2020/12/06 04:55:55;;;;;;;35.67;29.27;;;3.80;99.90;;;;;;5123192;27;20587;-87
2020/12/06 04:58:25;;;;;;;35.33;30.07;;;3.80;99.90;;;;;;5123110;27;20607;-87
2020/12/06 05:00:52;;;;;;;46.97;33.97;;;3.90;99.90;;;;;;5127109;27;20695;-85
2020/12/06 05:03:32;;;;;;;48.63;36.13;;;3.70;99.90;;;;;;5122716;27;20977;-86
2020/12/06 05:05:59;;;;;;;46.97;35.73;;;3.60;99.90;;;;;;5115474;27;20631;-86
2020/12/06 05:08:26;;;;;;;78.53;38.73;;;3.60;99.90;;;;;;5124397;27;20992;-87
2020/12/06 05:10:54;;;;;;;55.17;38.70;;;3.60;99.90;;;;;;5127955;27;20642;-88
2020/12/06 05:13:20;;;;;;;70.87;37.30;;;3.50;99.90;;;;;;5129436;27;20617;-87
2020/12/06 05:15:47;;;;;;;64.43;39.53;;;3.40;99.90;;;;;;5126908;27;20612;-87
2020/12/06 05:18:14;;;;;;;59.97;40.90;;;3.20;99.90;;;;;;5128900;27;20619;-88
2020/12/06 05:20:40;;;;;;;68.53;42.27;;;3.30;99.90;;;;;;5118690;27;20658;-87
2020/12/06 05:23:07;;;;;;;59.10;39.03;;;3.40;99.90;;;;;;5126414;27;20623;-88
2020/12/06 05:25:33;;;;;;;61.77;41.23;;;3.40;99.90;;;;;;5123903;27;20625;-88
2020/12/06 05:28:01;;;;;;;56.53;40.30;;;3.40;99.90;;;;;;5112824;27;20630;-90
2020/12/06 05:30:27;;;;;;;55.13;39.80;;;3.50;99.90;;;;;;5120981;27;20627;-87
2020/12/06 05:32:53;;;;;;;56.57;40.10;;;3.50;99.90;;;;;;5124095;27;20638;-87
2020/12/06 05:35:20;;;;;;;56.60;40.47;;;3.50;99.90;;;;;;5137140;27;20624;-86
2020/12/06 05:37:46;;;;;;;51.33;38.87;;;3.40;99.90;;;;;;5138567;27;21082;-87
2020/12/06 05:40:16;;;;;;;54.53;40.90;;;3.40;99.90;;;;;;5138911;27;20630;-88
2020/12/06 05:42:43;;;;;;;54.03;38.50;;;3.50;99.90;;;;;;5125965;27;20623;-87
2020/12/06 05:45:11;;;;;;;54.67;39.70;;;3.60;99.90;;;;;;5139259;27;20682;-87
2020/12/06 05:47:38;;;;;;;51.83;39.07;;;3.40;99.90;;;;;;5135648;27;20626;-88
2020/12/06 05:50:06;;;;;;;57.50;42.67;;;3.40;99.90;;;;;;5136380;27;20738;-89
2020/12/06 05:52:33;;;;;;;55.60;41.03;;;3.50;99.90;;;;;;5143155;27;20635;-88
2020/12/06 05:55:01;;;;;;;58.70;42.43;;;3.60;99.90;;;;;;5134665;27;20634;-87
2020/12/06 05:57:28;;;;;;;64.87;42.30;;;3.60;99.90;;;;;;5143526;27;21364;-88
2020/12/06 05:59:56;;;;;;;58.23;42.03;;;3.50;99.90;;;;;;5137726;27;20618;-89
2020/12/06 06:02:24;;;;;;;60.20;43.50;;;3.60;99.90;;;;;;5117992;27;20663;-87
2020/12/06 06:04:50;;;;;;;57.57;39.97;;;3.60;99.90;;;;;;5145302;27;20635;-89
2020/12/06 06:07:21;;;;;;;50.50;37.70;;;3.60;99.90;;;;;;5135065;27;21160;-88
2020/12/06 06:09:50;;;;;;;53.77;38.50;;;3.70;99.90;;;;;;5141468;27;21271;-88
2020/12/06 06:12:31;;;;;;;55.70;42.00;;;3.70;99.90;;;;;;5129967;27;20615;-89
2020/12/06 06:15:00;;;;;;;52.27;38.20;;;3.80;99.90;;;;;;5126999;27;20703;-88
2020/12/06 06:17:29;;;;;;;49.60;37.37;;;3.90;99.90;;;;;;5133124;27;21217;-88
2020/12/06 06:19:55;;;;;;;52.60;40.40;;;4.00;99.90;;;;;;5134890;27;20618;-89
2020/12/06 06:22:31;;;;;;;45.10;36.97;;;3.90;99.90;;;;;;5142197;27;20736;-89
2020/12/06 06:25:00;;;;;;;48.40;40.33;;;3.80;99.90;;;;;;5135596;27;20627;-89
2020/12/06 06:27:33;;;;;;;48.50;37.70;;;3.80;99.90;;;;;;5136571;27;20627;-90
2020/12/06 06:30:00;;;;;;;46.93;41.13;;;3.90;99.90;;;;;;5145190;27;20654;-89
2020/12/06 06:32:28;;;;;;;53.97;40.30;;;4.00;99.90;;;;;;5138702;27;20629;-89
2020/12/06 06:34:56;;;;;;;44.87;38.27;;;3.80;99.90;;;;;;5120423;27;20661;-89
2020/12/06 06:37:28;;;;;;;48.73;39.63;;;3.80;99.90;;;;;;5143455;27;20600;-88
2020/12/06 06:39:59;;;;;;;48.60;39.40;;;3.80;99.90;;;;;;5146522;27;20619;-89
2020/12/06 06:42:27;;;;;;;44.57;34.53;;;3.90;99.90;;;;;;5149971;27;20686;-89
2020/12/06 06:45:04;;;;;;;47.60;37.37;;;3.90;99.90;;;;;;5141386;27;20627;-89
2020/12/06 06:47:34;;;;;;;46.43;38.00;;;3.90;99.90;;;;;;5142176;27;21152;-88
2020/12/06 06:50:00;;;;;;;42.50;36.13;;;3.90;99.90;;;;;;5134862;27;20689;-89
2020/12/06 06:52:28;;;;;;;43.33;35.10;;;3.90;99.90;;;;;;5132434;27;20633;-89
2020/12/06 06:54:56;;;;;;;44.40;36.50;;;3.90;99.90;;;;;;5108151;27;20662;-89
2020/12/06 06:57:24;;;;;;;41.50;34.90;;;3.90;99.90;;;;;;5121244;27;20616;-88
2020/12/06 06:59:53;;;;;;;40.93;35.67;;;4.10;99.90;;;;;;5132051;27;20625;-88
2020/12/06 07:02:24;;;;;;;43.43;36.50;;;4.10;99.90;;;;;;5132621;27;21598;-87
2020/12/06 07:04:52;;;;;;;45.77;36.80;;;4.10;99.90;;;;;;5132912;27;20645;-88
2020/12/06 07:07:37;;;;;;;42.33;36.13;;;3.90;99.90;;;;;;5129927;27;20633;-89
2020/12/06 07:10:07;;;;;;;49.27;38.23;;;3.80;99.90;;;;;;5126407;27;20669;-89
2020/12/06 07:12:39;;;;;;;45.80;38.37;;;3.80;99.90;;;;;;5127097;27;20658;-89
2020/12/06 07:15:10;;;;;;;50.07;39.17;;;3.80;99.90;;;;;;5119383;27;21226;-89
2020/12/06 07:17:38;;;;;;;42.37;32.63;;;3.80;99.90;;;;;;5119287;27;20639;-89
2020/12/06 07:20:06;;;;;;;46.10;37.73;;;3.90;99.90;;;;;;5130960;27;20619;-89
2020/12/06 07:22:32;;;;;;;43.40;32.70;;;4.00;99.90;;;;;;5123614;27;20661;-88
2020/12/06 07:25:00;;;;;;;45.30;38.10;;;4.00;99.90;;;;;;5122258;27;20656;-88
2020/12/06 07:27:27;;;;;;;49.70;37.30;;;4.00;99.90;;;;;;5120143;27;20624;-88
2020/12/06 07:29:53;;;;;;;44.90;34.70;;;3.90;99.90;;;;;;5108660;28;20809;-90
2020/12/06 07:32:20;;;;;;;50.10;36.20;;;3.70;99.90;;;;;;5128461;27;20619;-88
2020/12/06 07:34:47;;;;;;;49.30;38.03;;;3.80;99.90;;;;;;5126748;27;21244;-88
2020/12/06 07:37:18;;;;;;;48.20;35.83;;;3.80;99.90;;;;;;5130369;27;20619;-88
2020/12/06 07:39:46;;;;;;;49.90;37.93;;;3.90;99.90;;;;;;5130859;27;21123;-88
2020/12/06 07:42:18;;;;;;;50.43;37.87;;;3.90;99.90;;;;;;5123242;27;21034;-90
2020/12/06 07:44:49;;;;;;;50.83;37.70;;;3.90;99.90;;;;;;5126185;27;21493;-88
2020/12/06 07:47:16;;;;;;;44.33;33.63;;;3.90;99.90;;;;;;5122056;27;20609;-87
2020/12/06 07:49:44;;;;;;;52.23;40.27;;;3.90;99.90;;;;;;5126392;27;21213;-88
2020/12/06 07:52:16;;;;;;;48.83;36.63;;;3.90;99.90;;;;;;5126917;27;21354;-88
2020/12/06 07:54:52;;;;;;;53.77;36.83;;;3.90;99.90;;;;;;5117605;27;20647;-89
2020/12/06 07:57:27;;;;;;;48.83;37.83;;;3.80;99.90;;;;;;5123951;27;20667;-89
2020/12/06 07:59:55;;;;;;;52.37;37.87;;;3.80;99.90;;;;;;5124033;27;20622;-89
2020/12/06 08:02:23;;;;;;;51.87;37.67;;;3.80;99.90;;;;;;5126433;27;20980;-89
2020/12/06 08:04:53;;;;;;;50.00;37.63;;;3.80;99.90;;;;;;5132443;27;20650;-89
2020/12/06 08:07:25;;;;;;;55.17;40.97;;;3.80;99.90;;;;;;5126231;27;20667;-89
2020/12/06 08:09:53;;;;;;;56.40;39.60;;;3.90;99.90;;;;;;5134313;27;21001;-88
2020/12/06 08:12:22;;;;;;;55.70;40.07;;;4.00;99.90;;;;;;5128364;27;20641;-89
2020/12/06 08:14:57;;;;;;;54.87;41.63;;;3.90;99.90;;;;;;5129623;27;20654;-89
2020/12/06 08:17:24;;;;;;;58.50;39.47;;;3.90;99.90;;;;;;5138517;27;21018;-89
2020/12/06 08:19:50;;;;;;;58.03;38.70;;;3.90;99.90;;;;;;5131956;27;20610;-90
2020/12/06 08:22:17;;;;;;;61.67;39.90;;;3.90;99.90;;;;;;5130356;27;20623;-91
2020/12/06 08:24:49;;;;;;;58.03;35.93;;;3.90;99.90;;;;;;5110337;27;20658;-89
2020/12/06 08:27:21;;;;;;;64.87;34.80;;;3.90;99.90;;;;;;5130095;27;20634;-91
2020/12/06 08:29:48;;;;;;;63.90;34.13;;;3.90;99.90;;;;;;5106545;27;21223;-91
2020/12/06 08:32:14;;;;;;;58.47;34.97;;;3.90;99.90;;;;;;5119521;27;20639;-89
2020/12/06 08:34:54;;;;;;;69.47;34.83;;;4.00;99.90;;;;;;5123552;27;20666;-91
2020/12/06 08:37:21;;;;;;;61.53;33.47;;;4.10;99.90;;;;;;5125588;27;20650;-91
2020/12/06 08:39:49;;;;;;;58.47;33.67;;;4.10;99.90;;;;;;5131009;27;21206;-90
2020/12/06 08:42:18;;;;;;;68.67;32.87;;;4.20;99.90;;;;;;5128300;27;20622;-91
2020/12/06 08:45:06;;;;;;;62.63;33.23;;;4.00;99.90;;;;;;5135355;27;20642;-90
2020/12/06 08:47:43;;;;;;;72.20;33.00;;;4.10;99.90;;;;;;5118643;27;20705;-91
2020/12/06 08:50:12;;;;;;;72.67;35.00;;;4.10;99.90;;;;;;5103315;27;20669;-90
2020/12/06 08:52:39;;;;;;;61.00;33.67;;;4.20;99.90;;;;;;5128345;27;21084;-90
2020/12/06 08:55:30;;;;;;;77.63;33.03;;;4.10;99.90;;;;;;5128810;27;20611;-90
2020/12/06 08:57:57;;;;;;;84.33;33.57;;;4.20;99.90;;;;;;5131193;27;20714;-90
2020/12/06 09:00:24;;;;;;;57.37;34.00;;;4.10;99.90;;;;;;5128391;27;21090;-91
2020/12/06 09:02:51;;;;;;;45.60;26.13;;;4.20;99.90;;;;;;5130050;27;20708;-90
2020/12/06 09:05:18;;;;;;;42.73;25.53;;;4.40;99.90;;;;;;5125881;27;20641;-90
2020/12/06 09:07:45;;;;;;;41.07;25.77;;;4.50;99.90;;;;;;5125489;27;20631;-91
2020/12/06 09:10:11;;;;;;;44.00;25.67;;;4.60;99.90;;;;;;5126541;27;21226;-92
2020/12/06 09:12:38;;;;;;;46.73;26.50;;;4.70;99.90;;;;;;5121365;27;20663;-91
2020/12/06 09:15:06;;;;;;;45.57;28.17;;;4.50;99.90;;;;;;5124671;27;20630;-90
2020/12/06 09:17:35;;;;;;;46.97;30.17;;;4.50;99.90;;;;;;5126187;27;20618;-93
2020/12/06 09:20:03;;;;;;;45.47;28.70;;;4.40;99.90;;;;;;5131204;27;20673;-91
2020/12/06 09:22:30;;;;;;;38.93;26.17;;;4.50;99.90;;;;;;5123253;27;20651;-91
2020/12/06 09:24:57;;;;;;;43.60;28.50;;;4.50;99.90;;;;;;5127222;27;20665;-91
2020/12/06 09:27:24;;;;;;;37.40;26.70;;;4.50;99.90;;;;;;5121800;27;20657;-91
2020/12/06 09:29:51;;;;;;;32.97;23.93;;;4.50;99.90;;;;;;5124004;27;20615;-90
2020/12/06 09:32:19;;;;;;;34.87;22.73;;;4.60;99.90;;;;;;5126838;27;20599;-90
2020/12/06 09:34:45;;;;;;;36.53;23.77;;;4.70;99.90;;;;;;5126497;27;20758;-89
2020/12/06 09:37:12;;;;;;;31.03;22.00;;;4.60;99.90;;;;;;5133612;27;20689;-90
2020/12/06 09:39:41;;;;;;;33.80;22.93;;;4.80;99.90;;;;;;5146215;27;20630;-90
2020/12/06 09:42:07;;;;;;;40.63;25.73;;;4.80;99.90;;;;;;5128089;27;20635;-91
2020/12/06 09:44:36;;;;;;;35.77;24.50;;;4.80;99.90;;;;;;5126787;27;20627;-91
2020/12/06 09:47:04;;;;;;;32.77;23.40;;;4.70;99.90;;;;;;5127223;27;20625;-91
2020/12/06 09:49:31;;;;;;;32.20;23.73;;;4.70;99.90;;;;;;5108271;27;20658;-90
2020/12/06 09:51:57;;;;;;;31.83;21.77;;;4.70;99.90;;;;;;5119936;27;20645;-89
2020/12/06 09:54:26;;;;;;;33.03;22.67;;;4.60;99.90;;;;;;5119126;27;20651;-89
2020/12/06 09:56:54;;;;;;;27.00;20.03;;;4.60;99.90;;;;;;5116411;27;20646;-89
2020/12/06 09:59:21;;;;;;;32.37;21.93;;;4.60;99.90;;;;;;5120818;27;20600;-90
2020/12/06 10:01:48;;;;;;;25.70;19.70;;;4.70;99.90;;;;;;5127773;27;20620;-91
2020/12/06 10:04:15;;;;;;;29.83;22.03;;;4.60;99.90;;;;;;5124517;27;20659;-92
2020/12/06 10:06:42;;;;;;;25.87;20.17;;;4.60;99.90;;;;;;5120936;27;20608;-90
2020/12/06 10:09:08;;;;;;;30.90;23.80;;;4.70;99.90;;;;;;5124887;27;20659;-91
2020/12/06 10:11:35;;;;;;;30.83;23.20;;;4.80;99.90;;;;;;5122851;27;21104;-91
2020/12/06 10:14:02;;;;;;;36.80;24.30;;;4.90;99.90;;;;;;5127429;27;21417;-91
2020/12/06 10:16:30;;;;;;;32.83;23.53;;;5.00;99.90;;;;;;5126846;27;20626;-91
2020/12/06 10:18:58;;;;;;;35.73;25.37;;;4.90;99.90;;;;;;5130387;27;20619;-90
2020/12/06 10:21:25;;;;;;;36.17;23.07;;;4.70;99.90;;;;;;5111676;27;20627;-91
2020/12/06 10:24:00;;;;;;;34.83;23.97;;;4.70;99.90;;;;;;5129765;27;20662;-91
2020/12/06 10:26:33;;;;;;;35.60;27.03;;;4.80;99.90;;;;;;5128188;27;20633;-91
2020/12/06 10:29:00;;;;;;;35.10;25.40;;;4.90;99.90;;;;;;5145397;27;20655;-91
2020/12/06 10:31:27;;;;;;;37.67;25.20;;;4.90;99.90;;;;;;5148017;27;20641;-89
2020/12/06 10:33:53;;;;;;;32.37;23.60;;;4.80;99.90;;;;;;5140444;27;20694;-91
2020/12/06 10:36:20;;;;;;;33.43;24.53;;;4.80;99.90;;;;;;5139718;27;20631;-90
2020/12/06 10:38:50;;;;;;;34.23;25.40;;;4.80;99.90;;;;;;5142363;27;20620;-89
2020/12/06 10:41:17;;;;;;;34.43;25.43;;;4.80;99.90;;;;;;5148421;27;20603;-89
2020/12/06 10:43:45;;;;;;;32.83;24.50;;;4.80;99.90;;;;;;5135317;27;20642;-90
2020/12/06 10:46:11;;;;;;;32.40;23.27;;;4.80;99.90;;;;;;5125768;27;20631;-91
2020/12/06 10:48:38;;;;;;;29.97;22.80;;;4.80;99.90;;;;;;5133917;27;20759;-90
2020/12/06 10:51:05;;;;;;;32.53;24.30;;;4.80;99.90;;;;;;5134104;27;20607;-90
2020/12/06 10:53:38;;;;;;;32.77;23.20;;;4.80;99.90;;;;;;5127627;27;21074;-89
2020/12/06 10:56:07;;;;;;;29.70;23.37;;;4.80;99.90;;;;;;5136821;27;20629;-90
2020/12/06 10:58:33;;;;;;;28.90;21.80;;;4.80;99.90;;;;;;5143102;27;20619;-91
2020/12/06 11:01:00;;;;;;;29.63;22.60;;;4.80;99.90;;;;;;5119471;28;20650;-91
2020/12/06 11:03:27;;;;;;;30.43;23.63;;;4.80;99.90;;;;;;5141869;27;20635;-90
2020/12/06 11:05:53;;;;;;;28.03;23.73;;;4.90;99.90;;;;;;5126159;27;20675;-89
2020/12/06 11:08:21;;;;;;;30.53;21.80;;;5.10;99.90;;;;;;5130763;27;20628;-90
2020/12/06 11:10:48;;;;;;;22.50;18.83;;;5.30;99.90;;;;;;5140388;27;20662;-91
2020/12/06 11:13:15;;;;;;;20.20;17.97;;;5.30;99.90;;;;;;5146796;27;20697;-91
2020/12/06 11:15:45;;;;;;;19.27;16.90;;;5.20;99.90;;;;;;5134865;27;20651;-90
2020/12/06 11:18:11;;;;;;;20.33;16.40;;;5.20;99.90;;;;;;5138048;27;20643;-91
2020/12/06 11:20:37;;;;;;;17.23;15.37;;;5.30;99.90;;;;;;5136210;27;20630;-92
2020/12/06 11:23:06;;;;;;;19.93;17.03;;;5.50;99.90;;;;;;5128165;27;20642;-92
2020/12/06 11:25:32;;;;;;;17.00;15.20;;;5.40;99.90;;;;;;5121328;27;21812;-92
2020/12/06 11:28:02;;;;;;;17.23;15.40;;;5.40;99.90;;;;;;5143877;27;20618;-94
2020/12/06 11:30:50;;;;;;;19.10;16.87;;;5.40;99.90;;;;;;5139174;27;20667;-93
2020/12/06 11:33:24;;;;;;;17.07;15.37;;;5.30;99.90;;;;;;5135409;27;20664;-92
2020/12/06 11:35:52;;;;;;;17.43;15.50;;;5.20;99.90;;;;;;5118589;28;20627;-92
2020/12/06 11:38:18;;;;;;;18.90;16.53;;;5.20;99.90;;;;;;5124945;27;21216;-93
2020/12/06 11:40:45;;;;;;;18.57;16.63;;;5.10;99.90;;;;;;5127790;27;20677;-92
2020/12/06 11:43:13;;;;;;;20.17;18.07;;;5.10;99.90;;;;;;5145933;27;20639;-94
2020/12/06 11:45:42;;;;;;;19.83;17.83;;;5.20;99.90;;;;;;5148016;27;20665;-94
2020/12/06 11:48:14;;;;;;;19.90;18.00;;;5.20;99.90;;;;;;5132711;27;20659;-91
2020/12/06 11:50:41;;;;;;;20.90;18.80;;;5.20;99.90;;;;;;5119304;27;20801;-92
2020/12/06 11:53:26;;;;;;;19.83;17.90;;;5.30;99.90;;;;;;5141275;27;21188;-92
2020/12/06 11:55:54;;;;;;;20.10;18.07;;;5.20;99.90;;;;;;5138767;27;20988;-91
2020/12/06 11:58:39;;;;;;;18.33;16.53;;;5.20;99.90;;;;;;5124585;27;20650;-91
2020/12/06 12:01:09;;;;;;;19.07;17.17;;;5.30;99.90;;;;;;5127527;27;20750;-93
2020/12/06 12:06:25;;;;;;;20.13;18.17;;;5.30;99.90;;;;;;5134733;27;20623;-95
2020/12/06 12:08:54;;;;;;;18.80;16.87;;;5.40;99.90;;;;;;5143140;27;20741;-94
2020/12/06 12:11:23;;;;;;;19.23;17.27;;;5.50;99.90;;;;;;5137413;27;20619;-94
2020/12/06 12:13:50;;;;;;;18.80;16.93;;;5.50;99.90;;;;;;5141954;27;20701;-94
2020/12/06 12:16:17;;;;;;;22.00;18.60;;;5.50;99.90;;;;;;5141696;27;21100;-94
2020/12/06 12:18:46;;;;;;;18.67;16.67;;;5.50;99.90;;;;;;5143479;27;20606;-93
2020/12/06 12:21:12;;;;;;;19.63;17.70;;;5.50;99.90;;;;;;5134523;27;20673;-93
2020/12/06 12:23:40;;;;;;;17.00;15.20;;;5.70;99.90;;;;;;5131824;27;20651;-93
2020/12/06 12:26:09;;;;;;;17.80;16.10;;;5.60;99.90;;;;;;5132807;27;20662;-92
2020/12/06 12:31:34;;;;;;;16.83;14.83;;;5.50;99.90;;;;;;5138809;27;20611;-94
2020/12/06 12:34:01;;;;;;;15.20;13.70;;;5.60;99.90;;;;;;5144802;27;21000;-92
2020/12/06 12:36:30;;;;;;;18.87;17.07;;;5.60;99.90;;;;;;5145791;27;20629;-93
2020/12/06 12:39:02;;;;;;;16.20;14.60;;;5.50;99.90;;;;;;5140427;27;20638;-92
2020/12/06 12:41:34;;;;;;;17.07;15.37;;;5.60;99.90;;;;;;5136028;27;20637;-92
2020/12/06 12:44:04;;;;;;;15.80;14.30;;;5.60;99.90;;;;;;5148552;27;20651;-93
2020/12/06 12:46:31;;;;;;;15.23;13.63;;;5.60;99.90;;;;;;5135863;27;20688;-93